sensor_id;sensor_type;location;lat;lon;timestamp;pressure;altitude;pressure_sealevel;temperature;humidity
59873;BME280;50750;51.636;4.948;2022-09-27T00:00:06;99887.19;;;16.89;65.29
59873;BME280;50750;51.636;4.948;2022-09-27T00:02:53;99889.99;;;16.89;65.28
59873;BME280;50750;51.636;4.948;2022-09-27T00:05:19;99896.31;;;16.90;65.24
59873;BME280;50750;51.636;4.948;2022-09-27T00:07:46;99897.71;;;16.90;65.24
59873;BME280;50750;51.636;4.948;2022-09-27T00:10:12;99897.89;;;16.90;65.18
59873;BME280;50750;51.636;4.948;2022-09-27T00:12:39;99900.73;;;16.90;65.15
59873;BME280;50750;51.636;4.948;2022-09-27T00:15:06;99906.80;;;16.89;65.16
59873;BME280;50750;51.636;4.948;2022-09-27T00:17:33;99904.52;;;16.89;65.12
59873;BME280;50750;51.636;4.948;2022-09-27T00:20:01;99911.51;;;16.88;65.12
59873;BME280;50750;51.636;4.948;2022-09-27T00:22:28;99921.77;;;16.88;65.16
59873;BME280;50750;51.636;4.948;2022-09-27T00:24:54;99930.06;;;16.88;65.01
59873;BME280;50750;51.636;4.948;2022-09-27T00:27:21;99920.70;;;16.88;65.18
59873;BME280;50750;51.636;4.948;2022-09-27T00:29:47;99908.66;;;16.88;65.08
59873;BME280;50750;51.636;4.948;2022-09-27T00:32:13;99899.59;;;16.88;65.10
59873;BME280;50750;51.636;4.948;2022-09-27T00:34:40;99895.02;;;16.88;65.04
59873;BME280;50750;51.636;4.948;2022-09-27T00:37:08;99896.41;;;16.89;65.16
59873;BME280;50750;51.636;4.948;2022-09-27T00:39:35;99897.33;;;16.88;65.04
59873;BME280;50750;51.636;4.948;2022-09-27T00:42:07;99898.97;;;16.87;65.05
59873;BME280;50750;51.636;4.948;2022-09-27T00:47:24;99898.45;;;16.87;65.03
59873;BME280;50750;51.636;4.948;2022-09-27T00:50:11;99904.17;;;16.86;65.02
59873;BME280;50750;51.636;4.948;2022-09-27T00:53:07;99907.27;;;16.85;65.10
59873;BME280;50750;51.636;4.948;2022-09-27T00:55:35;99911.82;;;16.86;65.10
59873;BME280;50750;51.636;4.948;2022-09-27T00:58:03;99913.72;;;16.86;65.05
59873;BME280;50750;51.636;4.948;2022-09-27T01:00:30;99916.34;;;16.87;65.08
59873;BME280;50750;51.636;4.948;2022-09-27T01:02:57;99912.28;;;16.87;65.08
59873;BME280;50750;51.636;4.948;2022-09-27T01:05:27;99916.52;;;16.87;64.97
59873;BME280;50750;51.636;4.948;2022-09-27T01:07:54;99924.29;;;16.87;64.96
59873;BME280;50750;51.636;4.948;2022-09-27T01:10:31;99925.52;;;16.87;64.98
59873;BME280;50750;51.636;4.948;2022-09-27T01:15:58;99925.89;;;16.87;64.93
59873;BME280;50750;51.636;4.948;2022-09-27T01:18:29;99923.38;;;16.85;64.88
59873;BME280;50750;51.636;4.948;2022-09-27T01:23:57;99931.13;;;16.83;64.90
59873;BME280;50750;51.636;4.948;2022-09-27T01:32:41;99935.26;;;16.82;64.92
59873;BME280;50750;51.636;4.948;2022-09-27T01:35:40;99954.31;;;16.83;64.85
59873;BME280;50750;51.636;4.948;2022-09-27T01:38:48;99970.23;;;16.83;64.96
59873;BME280;50750;51.636;4.948;2022-09-27T01:41:36;99959.05;;;16.83;64.94
59873;BME280;50750;51.636;4.948;2022-09-27T01:44:26;99925.98;;;16.83;64.78
59873;BME280;50750;51.636;4.948;2022-09-27T01:46:59;99913.27;;;16.83;64.70
59873;BME280;50750;51.636;4.948;2022-09-27T01:49:33;99927.58;;;16.83;64.72
59873;BME280;50750;51.636;4.948;2022-09-27T01:52:04;99931.31;;;16.83;64.83
59873;BME280;50750;51.636;4.948;2022-09-27T01:54:42;99931.52;;;16.82;64.76
59873;BME280;50750;51.636;4.948;2022-09-27T01:57:12;99937.73;;;16.82;64.74
59873;BME280;50750;51.636;4.948;2022-09-27T01:59:47;99952.21;;;16.82;64.66
59873;BME280;50750;51.636;4.948;2022-09-27T02:02:17;99966.88;;;16.82;64.79
59873;BME280;50750;51.636;4.948;2022-09-27T02:04:49;99956.92;;;16.83;64.66
59873;BME280;50750;51.636;4.948;2022-09-27T02:07:25;99955.27;;;16.84;64.71
59873;BME280;50750;51.636;4.948;2022-09-27T02:09:58;99950.17;;;16.83;64.71
59873;BME280;50750;51.636;4.948;2022-09-27T02:12:29;99943.07;;;16.84;64.60
59873;BME280;50750;51.636;4.948;2022-09-27T02:15:04;99936.53;;;16.84;64.63
59873;BME280;50750;51.636;4.948;2022-09-27T02:17:57;99934.97;;;16.83;64.54
59873;BME280;50750;51.636;4.948;2022-09-27T02:20:40;99931.80;;;16.83;64.59
59873;BME280;50750;51.636;4.948;2022-09-27T02:26:11;99937.40;;;16.82;64.60
59873;BME280;50750;51.636;4.948;2022-09-27T02:28:51;99937.52;;;16.80;64.58
59873;BME280;50750;51.636;4.948;2022-09-27T02:31:20;99940.88;;;16.80;64.59
59873;BME280;50750;51.636;4.948;2022-09-27T02:33:51;99937.11;;;16.81;64.55
59873;BME280;50750;51.636;4.948;2022-09-27T02:36:20;99936.81;;;16.80;64.55
59873;BME280;50750;51.636;4.948;2022-09-27T02:38:46;99935.00;;;16.81;64.54
59873;BME280;50750;51.636;4.948;2022-09-27T02:41:15;99933.02;;;16.81;64.57
59873;BME280;50750;51.636;4.948;2022-09-27T02:43:44;99924.73;;;16.81;64.46
59873;BME280;50750;51.636;4.948;2022-09-27T02:49:15;99926.89;;;16.80;64.51
59873;BME280;50750;51.636;4.948;2022-09-27T03:00:02;99917.40;;;16.77;64.41
59873;BME280;50750;51.636;4.948;2022-09-27T03:02:52;99919.55;;;16.76;64.45
59873;BME280;50750;51.636;4.948;2022-09-27T03:05:25;99927.33;;;16.76;64.49
59873;BME280;50750;51.636;4.948;2022-09-27T03:07:53;99928.54;;;16.76;64.42
59873;BME280;50750;51.636;4.948;2022-09-27T03:10:23;99940.18;;;16.77;64.43
59873;BME280;50750;51.636;4.948;2022-09-27T03:12:50;99944.73;;;16.77;64.41
59873;BME280;50750;51.636;4.948;2022-09-27T03:15:16;99941.20;;;16.78;64.29
59873;BME280;50750;51.636;4.948;2022-09-27T03:17:43;99940.27;;;16.78;64.36
59873;BME280;50750;51.636;4.948;2022-09-27T03:20:09;99942.77;;;16.78;64.29
59873;BME280;50750;51.636;4.948;2022-09-27T03:22:36;99952.67;;;16.78;64.31
59873;BME280;50750;51.636;4.948;2022-09-27T03:25:04;99957.66;;;16.77;64.21
59873;BME280;50750;51.636;4.948;2022-09-27T03:27:31;99971.48;;;16.77;64.24
59873;BME280;50750;51.636;4.948;2022-09-27T03:29:58;99968.16;;;16.76;64.17
59873;BME280;50750;51.636;4.948;2022-09-27T03:32:25;99966.96;;;16.75;64.20
59873;BME280;50750;51.636;4.948;2022-09-27T03:34:52;99977.84;;;16.74;64.24
59873;BME280;50750;51.636;4.948;2022-09-27T03:37:21;99985.30;;;16.74;64.01
59873;BME280;50750;51.636;4.948;2022-09-27T03:39:48;99989.19;;;16.74;64.25
59873;BME280;50750;51.636;4.948;2022-09-27T03:42:14;99989.92;;;16.73;64.12
59873;BME280;50750;51.636;4.948;2022-09-27T03:44:41;99986.34;;;16.74;64.09
59873;BME280;50750;51.636;4.948;2022-09-27T03:47:08;99973.97;;;16.74;64.10
59873;BME280;50750;51.636;4.948;2022-09-27T03:49:34;99963.90;;;16.74;64.00
59873;BME280;50750;51.636;4.948;2022-09-27T03:52:01;99953.48;;;16.74;63.99
59873;BME280;50750;51.636;4.948;2022-09-27T03:54:27;99954.36;;;16.73;64.03
59873;BME280;50750;51.636;4.948;2022-09-27T03:56:54;99954.92;;;16.73;64.02
59873;BME280;50750;51.636;4.948;2022-09-27T03:59:20;99947.17;;;16.73;63.92
59873;BME280;50750;51.636;4.948;2022-09-27T04:01:49;99942.80;;;16.72;63.88
59873;BME280;50750;51.636;4.948;2022-09-27T04:04:15;99939.69;;;16.71;63.90
59873;BME280;50750;51.636;4.948;2022-09-27T04:06:41;99940.21;;;16.71;63.98
59873;BME280;50750;51.636;4.948;2022-09-27T04:09:08;99937.88;;;16.70;64.01
59873;BME280;50750;51.636;4.948;2022-09-27T04:11:34;99944.07;;;16.69;64.04
59873;BME280;50750;51.636;4.948;2022-09-27T04:14:01;99947.45;;;16.69;63.92
59873;BME280;50750;51.636;4.948;2022-09-27T04:16:27;99950.23;;;16.69;64.02
59873;BME280;50750;51.636;4.948;2022-09-27T04:18:54;99953.92;;;16.70;63.99
59873;BME280;50750;51.636;4.948;2022-09-27T04:21:21;99953.41;;;16.69;63.91
59873;BME280;50750;51.636;4.948;2022-09-27T04:23:48;99960.72;;;16.69;63.96
59873;BME280;50750;51.636;4.948;2022-09-27T04:26:14;99963.45;;;16.70;63.94
59873;BME280;50750;51.636;4.948;2022-09-27T04:28:41;99962.94;;;16.70;63.85
59873;BME280;50750;51.636;4.948;2022-09-27T04:31:08;99967.54;;;16.70;63.80
59873;BME280;50750;51.636;4.948;2022-09-27T04:33:34;99974.79;;;16.70;63.76
59873;BME280;50750;51.636;4.948;2022-09-27T04:36:01;99979.80;;;16.69;63.68
59873;BME280;50750;51.636;4.948;2022-09-27T04:38:46;99980.22;;;16.68;63.75
59873;BME280;50750;51.636;4.948;2022-09-27T04:41:13;99980.27;;;16.67;63.76
59873;BME280;50750;51.636;4.948;2022-09-27T04:43:40;99971.83;;;16.67;63.66
59873;BME280;50750;51.636;4.948;2022-09-27T04:46:07;99966.55;;;16.66;63.66
59873;BME280;50750;51.636;4.948;2022-09-27T04:48:33;99968.00;;;16.66;63.63
59873;BME280;50750;51.636;4.948;2022-09-27T04:51:00;99968.37;;;16.66;63.61
59873;BME280;50750;51.636;4.948;2022-09-27T04:53:28;99964.45;;;16.66;63.58
59873;BME280;50750;51.636;4.948;2022-09-27T04:55:55;99958.63;;;16.66;63.62
59873;BME280;50750;51.636;4.948;2022-09-27T04:58:22;99966.02;;;16.66;63.56
59873;BME280;50750;51.636;4.948;2022-09-27T05:00:49;99965.30;;;16.66;63.65
59873;BME280;50750;51.636;4.948;2022-09-27T05:03:17;99971.48;;;16.67;63.60
59873;BME280;50750;51.636;4.948;2022-09-27T05:05:44;99968.45;;;16.67;63.59
59873;BME280;50750;51.636;4.948;2022-09-27T05:08:11;99969.20;;;16.66;63.61
59873;BME280;50750;51.636;4.948;2022-09-27T05:10:38;99968.36;;;16.66;63.65
59873;BME280;50750;51.636;4.948;2022-09-27T05:13:04;99972.44;;;16.66;63.60
59873;BME280;50750;51.636;4.948;2022-09-27T05:15:32;99976.89;;;16.65;63.60
59873;BME280;50750;51.636;4.948;2022-09-27T05:17:59;99980.63;;;16.65;63.54
59873;BME280;50750;51.636;4.948;2022-09-27T05:20:25;99982.44;;;16.64;63.57
59873;BME280;50750;51.636;4.948;2022-09-27T05:22:52;99979.98;;;16.64;63.50
59873;BME280;50750;51.636;4.948;2022-09-27T05:25:19;99979.98;;;16.64;63.65
59873;BME280;50750;51.636;4.948;2022-09-27T05:27:46;99983.80;;;16.64;63.57
59873;BME280;50750;51.636;4.948;2022-09-27T05:30:12;99986.44;;;16.65;63.55
59873;BME280;50750;51.636;4.948;2022-09-27T05:32:42;99984.13;;;16.65;63.57
59873;BME280;50750;51.636;4.948;2022-09-27T05:35:09;99988.37;;;16.65;63.54
59873;BME280;50750;51.636;4.948;2022-09-27T05:37:35;99989.43;;;16.65;63.50
59873;BME280;50750;51.636;4.948;2022-09-27T05:40:02;99994.19;;;16.65;63.54
59873;BME280;50750;51.636;4.948;2022-09-27T05:42:28;99993.66;;;16.65;63.44
59873;BME280;50750;51.636;4.948;2022-09-27T05:44:55;99990.85;;;16.65;63.47
59873;BME280;50750;51.636;4.948;2022-09-27T05:47:22;99988.01;;;16.65;63.41
59873;BME280;50750;51.636;4.948;2022-09-27T05:49:48;99988.52;;;16.66;63.35
59873;BME280;50750;51.636;4.948;2022-09-27T05:52:14;99994.76;;;16.65;63.38
59873;BME280;50750;51.636;4.948;2022-09-27T05:54:41;99995.08;;;16.65;63.27
59873;BME280;50750;51.636;4.948;2022-09-27T05:57:07;99999.84;;;16.66;63.22
59873;BME280;50750;51.636;4.948;2022-09-27T05:59:34;100007.73;;;16.66;63.22
59873;BME280;50750;51.636;4.948;2022-09-27T06:02:01;100011.58;;;16.67;63.29
59873;BME280;50750;51.636;4.948;2022-09-27T06:04:28;100007.65;;;16.67;63.24
59873;BME280;50750;51.636;4.948;2022-09-27T06:06:55;99997.36;;;16.68;63.27
59873;BME280;50750;51.636;4.948;2022-09-27T06:09:24;99986.73;;;16.68;63.12
59873;BME280;50750;51.636;4.948;2022-09-27T06:11:57;99981.77;;;16.68;63.10
59873;BME280;50750;51.636;4.948;2022-09-27T06:14:24;99980.01;;;16.68;63.10
59873;BME280;50750;51.636;4.948;2022-09-27T06:16:51;99975.42;;;16.68;63.11
59873;BME280;50750;51.636;4.948;2022-09-27T06:19:24;99971.40;;;16.68;63.06
59873;BME280;50750;51.636;4.948;2022-09-27T06:21:50;99969.61;;;16.68;62.99
59873;BME280;50750;51.636;4.948;2022-09-27T06:24:17;99969.65;;;16.67;63.13
59873;BME280;50750;51.636;4.948;2022-09-27T06:26:44;99962.85;;;16.66;62.61
59873;BME280;50750;51.636;4.948;2022-09-27T06:29:13;99959.85;;;16.63;62.05
59873;BME280;50750;51.636;4.948;2022-09-27T06:31:40;99955.20;;;16.62;62.34
59873;BME280;50750;51.636;4.948;2022-09-27T06:34:06;99960.95;;;16.60;62.39
59873;BME280;50750;51.636;4.948;2022-09-27T06:36:34;99965.32;;;16.59;62.44
59873;BME280;50750;51.636;4.948;2022-09-27T06:39:01;99972.77;;;16.58;62.37
59873;BME280;50750;51.636;4.948;2022-09-27T06:41:28;99976.89;;;16.57;62.42
59873;BME280;50750;51.636;4.948;2022-09-27T06:43:55;99986.05;;;16.57;62.37
59873;BME280;50750;51.636;4.948;2022-09-27T06:46:24;99994.71;;;16.57;62.40
59873;BME280;50750;51.636;4.948;2022-09-27T06:48:50;100000.16;;;16.58;62.42
59873;BME280;50750;51.636;4.948;2022-09-27T06:51:18;99990.27;;;16.58;62.43
59873;BME280;50750;51.636;4.948;2022-09-27T06:53:45;99981.24;;;16.58;62.40
59873;BME280;50750;51.636;4.948;2022-09-27T06:56:12;99984.34;;;16.59;62.45
59873;BME280;50750;51.636;4.948;2022-09-27T06:58:39;99985.61;;;16.59;62.30
59873;BME280;50750;51.636;4.948;2022-09-27T07:01:40;99987.23;;;16.59;62.29
59873;BME280;50750;51.636;4.948;2022-09-27T07:04:09;99993.57;;;16.59;62.27
59873;BME280;50750;51.636;4.948;2022-09-27T07:06:37;99999.11;;;16.58;62.24
59873;BME280;50750;51.636;4.948;2022-09-27T07:09:04;99998.45;;;16.57;62.31
59873;BME280;50750;51.636;4.948;2022-09-27T07:11:35;100002.89;;;16.57;62.27
59873;BME280;50750;51.636;4.948;2022-09-27T07:14:02;100008.22;;;16.56;62.20
59873;BME280;50750;51.636;4.948;2022-09-27T07:16:30;100010.59;;;16.55;62.22
59873;BME280;50750;51.636;4.948;2022-09-27T07:18:56;100012.41;;;16.55;62.21
59873;BME280;50750;51.636;4.948;2022-09-27T07:21:24;100009.96;;;16.54;62.16
59873;BME280;50750;51.636;4.948;2022-09-27T07:23:51;100004.05;;;16.53;62.20
59873;BME280;50750;51.636;4.948;2022-09-27T07:26:19;100007.59;;;16.53;62.24
59873;BME280;50750;51.636;4.948;2022-09-27T07:28:49;100013.02;;;16.53;62.23
59873;BME280;50750;51.636;4.948;2022-09-27T07:31:15;100017.35;;;16.55;62.18
59873;BME280;50750;51.636;4.948;2022-09-27T07:33:42;100018.04;;;16.55;62.07
59873;BME280;50750;51.636;4.948;2022-09-27T07:36:10;100019.41;;;16.56;61.97
59873;BME280;50750;51.636;4.948;2022-09-27T07:38:37;100019.77;;;16.55;62.09
59873;BME280;50750;51.636;4.948;2022-09-27T07:41:31;100021.70;;;16.56;62.00
59873;BME280;50750;51.636;4.948;2022-09-27T07:43:57;100019.75;;;16.56;61.99
59873;BME280;50750;51.636;4.948;2022-09-27T07:46:24;100019.93;;;16.56;62.04
59873;BME280;50750;51.636;4.948;2022-09-27T07:48:51;100018.03;;;16.55;62.03
59873;BME280;50750;51.636;4.948;2022-09-27T07:51:17;100015.39;;;16.55;61.92
59873;BME280;50750;51.636;4.948;2022-09-27T07:53:44;100005.88;;;16.55;61.94
59873;BME280;50750;51.636;4.948;2022-09-27T07:56:10;100008.37;;;16.54;61.93
59873;BME280;50750;51.636;4.948;2022-09-27T07:58:37;100009.84;;;16.53;62.01
59873;BME280;50750;51.636;4.948;2022-09-27T08:01:03;100011.12;;;16.53;61.96
59873;BME280;50750;51.636;4.948;2022-09-27T08:03:30;100011.17;;;16.52;61.93
59873;BME280;50750;51.636;4.948;2022-09-27T08:06:01;100007.83;;;16.52;61.96
59873;BME280;50750;51.636;4.948;2022-09-27T08:08:28;100010.34;;;16.51;62.04
59873;BME280;50750;51.636;4.948;2022-09-27T08:10:55;100009.52;;;16.50;61.95
59873;BME280;50750;51.636;4.948;2022-09-27T08:13:21;100009.90;;;16.50;61.96
59873;BME280;50750;51.636;4.948;2022-09-27T08:15:48;100013.79;;;16.50;61.98
59873;BME280;50750;51.636;4.948;2022-09-27T08:18:18;100011.75;;;16.51;61.87
59873;BME280;50750;51.636;4.948;2022-09-27T08:20:47;100015.45;;;16.51;61.91
59873;BME280;50750;51.636;4.948;2022-09-27T08:23:13;100015.44;;;16.51;61.92
59873;BME280;50750;51.636;4.948;2022-09-27T08:25:41;100017.74;;;16.52;61.89
59873;BME280;50750;51.636;4.948;2022-09-27T08:28:08;100015.42;;;16.52;61.87
59873;BME280;50750;51.636;4.948;2022-09-27T08:30:35;100020.71;;;16.52;61.83
59873;BME280;50750;51.636;4.948;2022-09-27T08:33:03;100024.42;;;16.52;61.85
59873;BME280;50750;51.636;4.948;2022-09-27T08:35:31;100032.00;;;16.53;61.76
59873;BME280;50750;51.636;4.948;2022-09-27T08:38:00;100033.44;;;16.52;61.82
59873;BME280;50750;51.636;4.948;2022-09-27T08:40:58;100040.33;;;16.52;61.73
59873;BME280;50750;51.636;4.948;2022-09-27T08:46:29;100048.88;;;16.51;61.78
59873;BME280;50750;51.636;4.948;2022-09-27T08:49:34;100051.71;;;16.51;61.73
59873;BME280;50750;51.636;4.948;2022-09-27T08:52:00;100049.78;;;16.51;61.68
59873;BME280;50750;51.636;4.948;2022-09-27T08:54:31;100051.09;;;16.50;61.79
59873;BME280;50750;51.636;4.948;2022-09-27T08:57:01;100051.27;;;16.50;61.74
59873;BME280;50750;51.636;4.948;2022-09-27T08:59:33;100053.08;;;16.49;61.79
59873;BME280;50750;51.636;4.948;2022-09-27T09:02:01;100054.71;;;16.48;61.73
59873;BME280;50750;51.636;4.948;2022-09-27T09:04:34;100063.06;;;16.48;61.72
59873;BME280;50750;51.636;4.948;2022-09-27T09:12:50;100074.63;;;16.47;61.67
59873;BME280;50750;51.636;4.948;2022-09-27T09:15:32;100086.91;;;16.48;61.66
59873;BME280;50750;51.636;4.948;2022-09-27T09:18:25;100094.12;;;16.49;61.68
59873;BME280;50750;51.636;4.948;2022-09-27T09:26:15;100104.42;;;16.50;61.65
59873;BME280;50750;51.636;4.948;2022-09-27T09:36:46;100097.16;;;16.51;61.46
59873;BME280;50750;51.636;4.948;2022-09-27T09:39:35;100097.71;;;16.50;61.44
59873;BME280;50750;51.636;4.948;2022-09-27T09:42:13;100090.34;;;16.50;61.39
59873;BME280;50750;51.636;4.948;2022-09-27T09:44:54;100088.41;;;16.49;61.38
59873;BME280;50750;51.636;4.948;2022-09-27T09:49:56;100090.39;;;16.49;61.47
59873;BME280;50750;51.636;4.948;2022-09-27T09:52:28;100089.92;;;16.48;61.42
59873;BME280;50750;51.636;4.948;2022-09-27T09:55:22;100089.06;;;16.48;61.42
59873;BME280;50750;51.636;4.948;2022-09-27T09:58:12;100087.48;;;16.47;61.43
59873;BME280;50750;51.636;4.948;2022-09-27T10:00:51;100086.31;;;16.46;61.45
59873;BME280;50750;51.636;4.948;2022-09-27T10:03:20;100085.10;;;16.46;61.48
59873;BME280;50750;51.636;4.948;2022-09-27T10:05:48;100084.94;;;16.46;61.39
59873;BME280;50750;51.636;4.948;2022-09-27T10:08:20;100084.98;;;16.45;61.46
59873;BME280;50750;51.636;4.948;2022-09-27T10:10:47;100084.66;;;16.45;61.39
59873;BME280;50750;51.636;4.948;2022-09-27T10:13:19;100089.77;;;16.45;61.43
59873;BME280;50750;51.636;4.948;2022-09-27T10:15:54;100093.42;;;16.46;61.44
59873;BME280;50750;51.636;4.948;2022-09-27T10:18:23;100092.14;;;16.46;61.40
59873;BME280;50750;51.636;4.948;2022-09-27T10:20:57;100088.74;;;16.47;61.41
59873;BME280;50750;51.636;4.948;2022-09-27T10:23:27;100088.88;;;16.48;61.24
59873;BME280;50750;51.636;4.948;2022-09-27T10:26:01;100084.74;;;16.49;61.26
59873;BME280;50750;51.636;4.948;2022-09-27T10:28:30;100083.85;;;16.49;61.26
59873;BME280;50750;51.636;4.948;2022-09-27T10:31:02;100090.02;;;16.49;61.28
59873;BME280;50750;51.636;4.948;2022-09-27T10:33:30;100090.56;;;16.49;61.27
59873;BME280;50750;51.636;4.948;2022-09-27T10:35:58;100088.95;;;16.49;61.17
59873;BME280;50750;51.636;4.948;2022-09-27T10:38:29;100095.14;;;16.49;61.21
59873;BME280;50750;51.636;4.948;2022-09-27T10:41:14;100095.83;;;16.49;61.21
59873;BME280;50750;51.636;4.948;2022-09-27T10:43:41;100091.48;;;16.48;61.20
59873;BME280;50750;51.636;4.948;2022-09-27T10:48:36;100080.72;;;16.48;61.10
59873;BME280;50750;51.636;4.948;2022-09-27T10:51:21;100076.89;;;16.47;61.23
59873;BME280;50750;51.636;4.948;2022-09-27T10:53:49;100073.16;;;16.48;61.15
59873;BME280;50750;51.636;4.948;2022-09-27T10:56:27;100066.16;;;16.46;61.23
59873;BME280;50750;51.636;4.948;2022-09-27T10:58:55;100064.23;;;16.46;61.23
59873;BME280;50750;51.636;4.948;2022-09-27T11:01:26;100058.60;;;16.46;61.24
59873;BME280;50750;51.636;4.948;2022-09-27T11:04:04;100054.23;;;16.45;61.19
59873;BME280;50750;51.636;4.948;2022-09-27T11:06:34;100064.30;;;16.45;61.20
59873;BME280;50750;51.636;4.948;2022-09-27T11:09:20;100066.27;;;16.45;61.17
59873;BME280;50750;51.636;4.948;2022-09-27T11:11:49;100064.33;;;16.45;61.21
59873;BME280;50750;51.636;4.948;2022-09-27T11:14:23;100062.89;;;16.45;61.20
59873;BME280;50750;51.636;4.948;2022-09-27T11:17:12;100063.70;;;16.46;61.14
59873;BME280;50750;51.636;4.948;2022-09-27T11:22:37;100059.20;;;16.47;61.18
59873;BME280;50750;51.636;4.948;2022-09-27T11:31:12;100056.05;;;16.50;61.23
59873;BME280;50750;51.636;4.948;2022-09-27T11:44:54;100052.14;;;16.50;61.09
59873;BME280;50750;51.636;4.948;2022-09-27T12:02:03;100053.45;;;16.49;61.19
59873;BME280;50750;51.636;4.948;2022-09-27T12:04:53;100047.48;;;16.48;61.22
59873;BME280;50750;51.636;4.948;2022-09-27T12:10:13;100039.92;;;16.48;61.27
59873;BME280;50750;51.636;4.948;2022-09-27T12:12:44;100037.33;;;16.47;61.26
59873;BME280;50750;51.636;4.948;2022-09-27T12:15:29;100031.66;;;16.47;61.24
59873;BME280;50750;51.636;4.948;2022-09-27T12:18:20;100030.42;;;16.47;61.22
59873;BME280;50750;51.636;4.948;2022-09-27T12:20:51;100021.30;;;16.49;61.18
59873;BME280;50750;51.636;4.948;2022-09-27T12:25:57;100020.35;;;16.50;61.26
59873;BME280;50750;51.636;4.948;2022-09-27T12:28:32;100017.99;;;16.50;61.22
59873;BME280;50750;51.636;4.948;2022-09-27T12:31:17;100015.62;;;16.52;61.18
59873;BME280;50750;51.636;4.948;2022-09-27T12:36:40;100012.88;;;16.53;61.07
59873;BME280;50750;51.636;4.948;2022-09-27T12:41:47;100010.52;;;16.54;61.14
59873;BME280;50750;51.636;4.948;2022-09-27T12:44:16;100009.27;;;16.54;61.20
59873;BME280;50750;51.636;4.948;2022-09-27T12:46:54;100013.30;;;16.54;61.08
59873;BME280;50750;51.636;4.948;2022-09-27T12:52:00;100002.70;;;16.55;61.09
59873;BME280;50750;51.636;4.948;2022-09-27T12:54:52;99994.06;;;16.54;61.09
59873;BME280;50750;51.636;4.948;2022-09-27T13:00:10;99986.20;;;16.53;61.17
59873;BME280;50750;51.636;4.948;2022-09-27T13:05:57;99978.08;;;16.53;61.13
59873;BME280;50750;51.636;4.948;2022-09-27T13:09:24;99974.53;;;16.53;61.18
59873;BME280;50750;51.636;4.948;2022-09-27T13:14:18;99969.84;;;16.52;61.17
59873;BME280;50750;51.636;4.948;2022-09-27T13:16:46;99969.48;;;16.52;61.23
59873;BME280;50750;51.636;4.948;2022-09-27T13:19:38;99965.41;;;16.52;61.22
59873;BME280;50750;51.636;4.948;2022-09-27T13:22:55;99965.20;;;16.52;61.26
59873;BME280;50750;51.636;4.948;2022-09-27T13:24:56;99961.91;;;16.54;61.25
59873;BME280;50750;51.636;4.948;2022-09-27T13:32:38;99995.57;;;16.58;61.12
59873;BME280;50750;51.636;4.948;2022-09-27T13:35:16;99987.40;;;16.59;61.16
59873;BME280;50750;51.636;4.948;2022-09-27T13:48:15;99983.45;;;16.59;60.99
59873;BME280;50750;51.636;4.948;2022-09-27T13:54:01;99983.64;;;16.60;60.90
59873;BME280;50750;51.636;4.948;2022-09-27T13:59:20;99978.92;;;16.59;60.92
59873;BME280;50750;51.636;4.948;2022-09-27T14:01:52;99969.77;;;16.58;60.87
59873;BME280;50750;51.636;4.948;2022-09-27T14:04:28;99965.71;;;16.57;60.93
59873;BME280;50750;51.636;4.948;2022-09-27T14:06:58;99959.36;;;16.58;60.93
59873;BME280;50750;51.636;4.948;2022-09-27T14:09:29;99955.66;;;16.57;60.91
59873;BME280;50750;51.636;4.948;2022-09-27T14:12:00;99951.58;;;16.57;60.87
59873;BME280;50750;51.636;4.948;2022-09-27T14:14:29;99947.23;;;16.56;60.84
59873;BME280;50750;51.636;4.948;2022-09-27T14:16:58;99944.91;;;16.57;60.88
59873;BME280;50750;51.636;4.948;2022-09-27T14:19:26;99942.66;;;16.56;60.92
59873;BME280;50750;51.636;4.948;2022-09-27T14:21:52;99941.95;;;16.56;60.93
59873;BME280;50750;51.636;4.948;2022-09-27T14:27:17;99947.88;;;16.55;60.95
59873;BME280;50750;51.636;4.948;2022-09-27T14:29:55;99947.34;;;16.55;60.97
59873;BME280;50750;51.636;4.948;2022-09-27T14:32:31;99950.31;;;16.56;60.95
59873;BME280;50750;51.636;4.948;2022-09-27T14:38:02;99956.05;;;16.57;60.92
59873;BME280;50750;51.636;4.948;2022-09-27T14:40:29;99958.04;;;16.59;60.87
59873;BME280;50750;51.636;4.948;2022-09-27T14:42:59;99958.05;;;16.59;60.95
59873;BME280;50750;51.636;4.948;2022-09-27T14:47:57;99953.13;;;16.59;60.87
59873;BME280;50750;51.636;4.948;2022-09-27T14:50:27;99947.97;;;16.59;60.84
59873;BME280;50750;51.636;4.948;2022-09-27T14:52:56;99948.70;;;16.59;60.81
59873;BME280;50750;51.636;4.948;2022-09-27T14:55:25;99949.04;;;16.59;60.79
59873;BME280;50750;51.636;4.948;2022-09-27T14:57:56;99954.52;;;16.59;60.79
59873;BME280;50750;51.636;4.948;2022-09-27T15:00:26;99958.09;;;16.58;60.82
59873;BME280;50750;51.636;4.948;2022-09-27T15:03:03;99955.38;;;16.56;60.81
59873;BME280;50750;51.636;4.948;2022-09-27T15:05:32;99953.04;;;16.57;60.74
59873;BME280;50750;51.636;4.948;2022-09-27T15:08:02;99947.77;;;16.56;60.75
59873;BME280;50750;51.636;4.948;2022-09-27T15:10:33;99938.12;;;16.55;60.78
59873;BME280;50750;51.636;4.948;2022-09-27T15:13:01;99941.99;;;16.56;60.61
59873;BME280;50750;51.636;4.948;2022-09-27T15:15:35;99944.02;;;16.55;60.74
59873;BME280;50750;51.636;4.948;2022-09-27T15:18:42;99947.55;;;16.55;60.79
59873;BME280;50750;51.636;4.948;2022-09-27T15:21:26;99938.60;;;16.54;60.76
59873;BME280;50750;51.636;4.948;2022-09-27T15:23:53;99934.44;;;16.53;60.80
59873;BME280;50750;51.636;4.948;2022-09-27T15:26:24;99941.66;;;16.53;60.69
59873;BME280;50750;51.636;4.948;2022-09-27T15:28:52;99951.90;;;16.53;60.73
59873;BME280;50750;51.636;4.948;2022-09-27T15:31:29;99954.06;;;16.52;60.68
59873;BME280;50750;51.636;4.948;2022-09-27T15:33:57;99950.20;;;16.52;60.74
59873;BME280;50750;51.636;4.948;2022-09-27T15:39:17;99932.08;;;16.51;60.77
59873;BME280;50750;51.636;4.948;2022-09-27T15:42:11;99930.64;;;16.51;60.79
59873;BME280;50750;51.636;4.948;2022-09-27T15:49:54;99936.60;;;16.49;60.77